createdAt,value
2024-03-04T00:00:42.894Z,996.28
2024-03-04T00:01:43.444Z,996.28
2024-03-04T00:02:43.851Z,996.28
2024-03-04T00:03:44.715Z,996.29
2024-03-04T00:04:45.707Z,996.30
2024-03-04T00:05:46.116Z,996.30
2024-03-04T00:06:46.972Z,996.31
2024-03-04T00:07:47.860Z,996.32
2024-03-04T00:08:48.734Z,996.34
2024-03-04T00:09:49.624Z,996.35
2024-03-04T00:10:50.526Z,996.37
2024-03-04T00:11:51.409Z,996.36
2024-03-04T00:12:52.283Z,996.40
2024-03-04T00:13:53.170Z,996.40
2024-03-04T00:14:54.063Z,996.42
2024-03-04T00:15:55.054Z,996.43
2024-03-04T00:16:55.439Z,996.43
2024-03-04T00:17:56.362Z,996.42
2024-03-04T00:18:57.234Z,996.45
2024-03-04T00:19:58.122Z,996.47
2024-03-04T00:20:59.031Z,996.48
2024-03-04T00:21:59.920Z,996.49
2024-03-04T00:23:00.781Z,996.50
2024-03-04T00:24:01.662Z,996.53
2024-03-04T00:25:02.609Z,996.54
2024-03-04T00:26:03.506Z,996.55
2024-03-04T00:27:04.388Z,996.58
2024-03-04T00:28:05.324Z,996.62
2024-03-04T00:29:06.171Z,996.64
2024-03-04T00:30:07.048Z,996.65
2024-03-04T00:31:07.992Z,996.68
2024-03-04T00:32:08.865Z,996.68
2024-03-04T00:33:09.779Z,996.71
2024-03-04T00:34:10.662Z,996.72
2024-03-04T00:35:11.517Z,996.73
2024-03-04T00:36:12.439Z,996.72
2024-03-04T00:37:13.324Z,996.72
2024-03-04T00:38:14.229Z,996.73
2024-03-04T00:39:15.127Z,996.72
2024-03-04T00:40:16.097Z,996.71
2024-03-04T00:41:16.980Z,996.71
2024-03-04T00:42:17.858Z,996.70
2024-03-04T00:43:18.768Z,996.70
2024-03-04T00:44:19.621Z,996.69
2024-03-04T00:45:20.504Z,996.70
2024-03-04T00:46:21.437Z,996.70
2024-03-04T00:47:22.294Z,996.70
2024-03-04T00:48:23.179Z,996.70
2024-03-04T00:49:24.091Z,996.70
2024-03-04T00:50:24.952Z,996.69
2024-03-04T00:51:25.882Z,996.69
2024-03-04T00:52:26.784Z,996.67
2024-03-04T00:53:27.686Z,996.66
2024-03-04T00:54:28.579Z,996.65
2024-03-04T00:55:29.499Z,996.64
2024-03-04T00:56:30.393Z,996.64
2024-03-04T00:57:31.274Z,996.65
2024-03-04T00:58:32.259Z,996.64
2024-03-04T00:59:32.667Z,996.64
2024-03-04T01:00:33.621Z,996.63
2024-03-04T01:01:34.540Z,996.64
2024-03-04T01:02:35.403Z,996.63
2024-03-04T01:03:36.286Z,996.62
2024-03-04T01:04:37.283Z,996.62
2024-03-04T01:05:37.740Z,996.62
2024-03-04T01:06:38.761Z,996.62
2024-03-04T01:07:39.660Z,996.63
2024-03-04T01:08:40.510Z,996.63
2024-03-04T01:09:41.395Z,996.65
2024-03-04T01:10:42.335Z,996.65
2024-03-04T01:11:43.303Z,996.65
2024-03-04T01:12:44.182Z,996.65
2024-03-04T01:13:45.087Z,996.66
2024-03-04T01:14:45.957Z,996.66
2024-03-04T01:15:46.830Z,996.67
2024-03-04T01:16:47.738Z,996.67
2024-03-04T01:17:48.626Z,996.67
2024-03-04T01:18:49.504Z,996.68
2024-03-04T01:19:50.439Z,996.68
2024-03-04T01:20:51.340Z,996.70
2024-03-04T01:21:52.270Z,996.71
2024-03-04T01:22:53.117Z,996.73
2024-03-04T01:23:54.012Z,996.74
2024-03-04T01:24:54.897Z,996.76
2024-03-04T01:25:55.759Z,996.77
2024-03-04T01:26:56.671Z,996.78
2024-03-04T01:27:57.579Z,996.79
2024-03-04T01:28:58.441Z,996.79
2024-03-04T01:29:59.336Z,996.78
2024-03-04T01:31:00.248Z,996.78
2024-03-04T01:32:01.135Z,996.78
2024-03-04T01:33:02.035Z,996.79
2024-03-04T01:34:02.944Z,996.79
2024-03-04T01:35:03.796Z,996.81
2024-03-04T01:36:04.684Z,996.82
2024-03-04T01:37:05.615Z,996.83
2024-03-04T01:38:06.461Z,996.82
2024-03-04T01:39:07.346Z,996.82
2024-03-04T01:40:08.240Z,996.82
2024-03-04T01:41:09.127Z,996.81
2024-03-04T01:42:10.010Z,996.81
2024-03-04T01:43:10.932Z,996.81
2024-03-04T01:44:11.797Z,996.81
2024-03-04T01:45:12.679Z,996.82
2024-03-04T01:46:13.608Z,996.83
2024-03-04T01:47:14.480Z,996.85
2024-03-04T01:48:15.364Z,996.89
2024-03-04T01:49:16.346Z,996.93
2024-03-04T01:50:17.196Z,996.97
2024-03-04T01:51:18.082Z,997.01
2024-03-04T01:52:19.163Z,997.04
2024-03-04T01:53:19.556Z,997.08
2024-03-04T01:54:20.430Z,997.10
2024-03-04T01:55:21.413Z,997.12
2024-03-04T01:56:22.272Z,997.15
2024-03-04T01:57:23.179Z,997.18
2024-03-04T01:58:24.096Z,997.21
2024-03-04T01:59:24.955Z,997.27
2024-03-04T02:02:09.143Z,997.37
2024-03-04T02:03:09.611Z,997.39
2024-03-04T02:04:10.541Z,997.40
2024-03-04T02:05:11.382Z,997.43
2024-03-04T02:06:12.269Z,997.44
2024-03-04T02:07:13.164Z,997.45
2024-03-04T02:08:14.089Z,997.44
2024-03-04T02:09:14.933Z,997.44
2024-03-04T02:10:15.843Z,997.44
2024-03-04T02:11:16.706Z,997.43
2024-03-04T02:12:17.602Z,997.42
2024-03-04T02:13:18.496Z,997.42
2024-03-04T02:14:19.365Z,997.43
2024-03-04T02:15:20.247Z,997.43
2024-03-04T02:16:21.169Z,997.44
2024-03-04T02:18:57.045Z,997.47
2024-03-04T02:19:57.909Z,997.48
2024-03-04T02:20:58.802Z,997.48
2024-03-04T02:21:59.770Z,997.50
2024-03-04T02:23:00.606Z,997.51
2024-03-04T02:24:01.533Z,997.53
2024-03-04T02:25:02.442Z,997.55
2024-03-04T02:26:03.279Z,997.56
2024-03-04T02:27:04.155Z,997.57
2024-03-04T02:28:05.088Z,997.56
2024-03-04T02:29:05.952Z,997.56
2024-03-04T02:30:06.827Z,997.57
2024-03-04T02:31:07.746Z,997.59
2024-03-04T02:32:08.598Z,997.61
2024-03-04T02:33:09.517Z,997.62
2024-03-04T02:34:10.474Z,997.63
2024-03-04T02:35:11.359Z,997.64
2024-03-04T02:36:12.246Z,997.65
2024-03-04T02:37:13.157Z,997.66
2024-03-04T02:38:14.002Z,997.67
2024-03-04T02:39:14.928Z,997.67
2024-03-04T02:40:15.866Z,997.68
2024-03-04T02:41:16.731Z,997.67
2024-03-04T02:42:17.609Z,997.68
2024-03-04T02:43:18.555Z,997.68
2024-03-04T02:44:19.486Z,997.68
2024-03-04T02:45:20.389Z,997.68
2024-03-04T02:46:21.269Z,997.68
2024-03-04T02:47:22.131Z,997.67
2024-03-04T02:48:23.010Z,997.66
2024-03-04T02:49:23.993Z,997.67
2024-03-04T02:50:24.854Z,997.68
2024-03-04T02:51:25.749Z,997.70
2024-03-04T02:52:26.653Z,997.72
2024-03-04T02:53:27.507Z,997.73
2024-03-04T02:54:28.421Z,997.75
2024-03-04T02:55:29.314Z,997.77
2024-03-04T02:56:30.171Z,997.78
2024-03-04T02:57:31.044Z,997.80
2024-03-04T02:58:32.130Z,997.80
2024-03-04T02:59:33.018Z,997.80
2024-03-04T03:00:33.885Z,997.81
2024-03-04T03:01:34.878Z,997.81
2024-03-04T03:02:35.268Z,997.81
2024-03-04T03:03:36.134Z,997.82
2024-03-04T03:04:37.058Z,997.83
2024-03-04T03:05:37.908Z,997.84
2024-03-04T03:06:38.788Z,997.87
2024-03-04T03:07:39.741Z,997.90
2024-03-04T03:08:40.598Z,997.93
2024-03-04T03:09:41.646Z,997.96
2024-03-04T03:10:42.044Z,997.99
2024-03-04T03:11:42.900Z,998.02
2024-03-04T03:12:43.768Z,998.04
2024-03-04T03:13:44.705Z,998.07
2024-03-04T03:14:45.555Z,998.09
2024-03-04T03:15:46.446Z,998.11
2024-03-04T03:16:47.312Z,998.14
2024-03-04T03:17:48.218Z,998.15
2024-03-04T03:18:49.081Z,998.16
2024-03-04T03:19:49.979Z,998.17
2024-03-04T03:20:50.860Z,998.17
2024-03-04T03:21:51.733Z,998.16
2024-03-04T03:22:52.620Z,998.17
2024-03-04T03:23:53.493Z,998.17
2024-03-04T03:24:54.413Z,998.18
2024-03-04T03:25:55.269Z,998.19
2024-03-04T03:26:56.147Z,998.19
2024-03-04T03:27:57.071Z,998.21
2024-03-04T03:28:57.921Z,998.21
2024-03-04T03:29:58.821Z,998.23
2024-03-04T03:30:59.739Z,998.25
2024-03-04T03:32:00.601Z,998.27
2024-03-04T03:33:01.514Z,998.28
2024-03-04T03:34:02.430Z,998.30
2024-03-04T03:35:03.286Z,998.31
2024-03-04T03:36:04.164Z,998.31
2024-03-04T03:37:05.088Z,998.32
2024-03-04T03:38:05.914Z,998.33
2024-03-04T03:39:06.792Z,998.35
2024-03-04T03:40:07.723Z,998.35
2024-03-04T03:41:08.574Z,998.37
2024-03-04T03:42:09.443Z,998.38
2024-03-04T03:43:10.354Z,998.39
2024-03-04T03:44:11.215Z,998.40
2024-03-04T03:45:12.102Z,998.41
2024-03-04T03:46:13.034Z,998.43
2024-03-04T03:47:13.861Z,998.43
2024-03-04T03:48:14.784Z,998.46
2024-03-04T03:49:15.654Z,998.50
2024-03-04T03:50:16.540Z,998.59
2024-03-04T03:51:17.411Z,998.63
2024-03-04T03:52:18.299Z,998.67
2024-03-04T03:53:19.152Z,998.76
2024-03-04T03:54:20.032Z,998.75
2024-03-04T03:55:21.001Z,998.75
2024-03-04T03:56:21.882Z,998.79
2024-03-04T03:57:22.761Z,998.74
2024-03-04T03:58:23.685Z,998.76
2024-03-04T03:59:24.514Z,998.80
2024-03-04T04:00:25.416Z,998.74
2024-03-04T04:01:26.371Z,998.73
2024-03-04T04:02:27.229Z,998.81
2024-03-04T04:03:28.112Z,998.81
2024-03-04T04:04:29.017Z,998.78
2024-03-04T04:05:29.899Z,998.89
2024-03-04T04:06:30.773Z,998.91
2024-03-04T04:07:31.703Z,998.91
2024-03-04T04:08:32.638Z,998.96
2024-03-04T04:09:33.496Z,998.96
2024-03-04T04:10:34.464Z,998.95
2024-03-04T04:11:34.892Z,998.95
2024-03-04T04:12:35.770Z,998.93
2024-03-04T04:13:36.853Z,998.92
2024-03-04T04:14:37.325Z,998.91
2024-03-04T04:15:38.225Z,998.92
2024-03-04T04:16:39.199Z,998.93
2024-03-04T04:17:39.732Z,998.94
2024-03-04T04:18:40.155Z,998.95
2024-03-04T04:19:41.065Z,998.96
2024-03-04T04:20:41.933Z,998.99
2024-03-04T04:21:42.827Z,999.02
2024-03-04T04:22:43.790Z,999.05
2024-03-04T04:23:44.644Z,999.06
2024-03-04T04:24:45.525Z,999.07
2024-03-04T04:25:46.465Z,999.07
2024-03-04T04:26:47.337Z,999.05
2024-03-04T04:27:48.185Z,999.06
2024-03-04T04:28:49.065Z,999.05
2024-03-04T04:29:49.965Z,999.05
2024-03-04T04:30:50.848Z,999.07
2024-03-04T04:31:51.733Z,999.09
2024-03-04T04:32:52.657Z,999.11
2024-03-04T04:33:53.510Z,999.11
2024-03-04T04:34:54.389Z,999.11
2024-03-04T04:35:55.287Z,999.12
2024-03-04T04:36:56.216Z,999.14
2024-03-04T04:37:57.098Z,999.16
2024-03-04T04:38:58.009Z,999.19
2024-03-04T04:39:58.869Z,999.24
2024-03-04T04:40:59.771Z,999.27
2024-03-04T04:42:00.676Z,999.27
2024-03-04T04:43:01.550Z,999.28
2024-03-04T04:44:02.393Z,999.30
2024-03-04T04:45:03.287Z,999.31
2024-03-04T04:46:04.208Z,999.32
2024-03-04T04:47:05.065Z,999.34
2024-03-04T04:48:06.015Z,999.35
2024-03-04T04:49:06.996Z,999.37
2024-03-04T04:50:07.850Z,999.36
2024-03-04T04:51:08.761Z,999.37
2024-03-04T04:52:09.665Z,999.36
2024-03-04T04:53:10.515Z,999.35
2024-03-04T04:54:11.418Z,999.37
2024-03-04T04:55:13.599Z,999.41
2024-03-04T04:56:12.914Z,999.44
2024-03-04T04:57:13.831Z,999.44
2024-03-04T04:58:14.680Z,999.45
2024-03-04T04:59:15.569Z,999.46
2024-03-04T05:00:16.472Z,999.49
2024-03-04T05:01:17.447Z,999.51
2024-03-04T05:02:17.850Z,999.51
2024-03-04T05:03:33.413Z,999.50
2024-03-04T05:04:32.211Z,999.54
2024-03-04T05:05:21.307Z,999.53
2024-03-04T05:06:21.181Z,999.54
2024-03-04T05:07:22.081Z,999.58
2024-03-04T05:08:22.941Z,999.56
2024-03-04T05:09:23.848Z,999.57
2024-03-04T05:10:24.744Z,999.58
2024-03-04T05:11:25.680Z,999.58
2024-03-04T05:12:26.531Z,999.59
2024-03-04T05:13:27.422Z,999.59
2024-03-04T05:14:28.307Z,999.61
2024-03-04T05:15:29.171Z,999.62
2024-03-04T05:16:30.164Z,999.65
2024-03-04T05:17:30.602Z,999.69
2024-03-04T05:18:31.448Z,999.73
2024-03-04T05:19:32.403Z,999.74
2024-03-04T05:20:43.222Z,999.78
2024-03-04T05:21:35.065Z,999.81
2024-03-04T05:22:35.027Z,999.83
2024-03-04T05:23:35.891Z,999.85
2024-03-04T05:24:36.785Z,999.87
2024-03-04T05:25:37.701Z,999.89
2024-03-04T05:26:38.595Z,999.90
2024-03-04T05:27:39.442Z,999.90
2024-03-04T05:28:40.390Z,999.91
2024-03-04T05:29:41.231Z,999.96
2024-03-04T05:30:42.104Z,999.98
2024-03-04T05:31:43.029Z,1000.00
2024-03-04T05:32:43.913Z,1000.02
2024-03-04T05:33:44.759Z,1000.05
2024-03-04T05:34:45.667Z,1000.07
2024-03-04T05:35:46.547Z,1000.09
2024-03-04T05:36:47.447Z,1000.09
2024-03-04T05:37:48.383Z,1000.10
2024-03-04T05:38:49.264Z,1000.11
2024-03-04T05:39:50.150Z,1000.12
2024-03-04T05:40:51.024Z,1000.11
2024-03-04T05:41:51.964Z,1000.14
2024-03-04T05:42:53.175Z,1000.15
2024-03-04T05:43:53.523Z,1000.16
2024-03-04T05:44:54.402Z,1000.17
2024-03-04T05:45:55.291Z,1000.18
2024-03-04T05:46:56.179Z,1000.19
2024-03-04T05:47:57.107Z,1000.19
2024-03-04T05:48:58.036Z,1000.19
2024-03-04T05:49:58.885Z,1000.18
2024-03-04T05:50:59.766Z,1000.19
2024-03-04T05:52:00.832Z,1000.20
2024-03-04T05:53:01.205Z,1000.21
2024-03-04T05:54:02.080Z,1000.22
2024-03-04T05:55:03.019Z,1000.24
2024-03-04T05:56:03.871Z,1000.27
2024-03-04T05:57:04.793Z,1000.27
2024-03-04T05:58:05.685Z,1000.30
2024-03-04T05:59:06.532Z,1000.32
2024-03-04T06:00:07.408Z,1000.36
2024-03-04T06:01:08.370Z,1000.38
2024-03-04T06:02:09.295Z,1000.40
2024-03-04T06:03:10.140Z,1000.43
2024-03-04T06:04:11.080Z,1000.44
2024-03-04T06:05:12.005Z,1000.46
2024-03-04T06:06:12.883Z,1000.45
2024-03-04T06:07:13.810Z,1000.46
2024-03-04T06:08:14.700Z,1000.47
2024-03-04T06:09:15.578Z,1000.47
2024-03-04T06:10:16.479Z,1000.48
2024-03-04T06:11:17.366Z,1000.48
2024-03-04T06:12:18.254Z,1000.49
2024-03-04T06:13:19.155Z,1000.49
2024-03-04T06:14:20.006Z,1000.50
2024-03-04T06:15:20.884Z,1000.49
2024-03-04T06:16:21.821Z,1000.47
2024-03-04T06:17:22.706Z,1000.48
2024-03-04T06:18:23.575Z,1000.47
2024-03-04T06:19:24.466Z,1000.45
2024-03-04T06:20:25.341Z,1000.42
2024-03-04T06:21:26.228Z,1000.39
2024-03-04T06:22:29.583Z,1000.36
2024-03-04T06:23:27.708Z,1000.34
2024-03-04T06:24:28.587Z,1000.34
2024-03-04T06:25:29.489Z,1000.33
2024-03-04T06:26:30.347Z,1000.34
2024-03-04T06:27:31.268Z,1000.34
2024-03-04T06:28:32.178Z,1000.34
2024-03-04T06:29:33.004Z,1000.36
2024-03-04T06:30:33.884Z,1000.38
2024-03-04T06:31:34.850Z,1000.42
2024-03-04T06:32:35.778Z,1000.44
2024-03-04T06:33:48.016Z,1000.46
2024-03-04T06:34:38.445Z,1000.48
2024-03-04T06:35:38.297Z,1000.49
2024-03-04T06:36:39.179Z,1000.49
2024-03-04T06:37:40.144Z,1000.50
2024-03-04T06:38:40.978Z,1000.52
2024-03-04T06:39:41.860Z,1000.54
2024-03-04T06:40:42.824Z,1000.56
2024-03-04T06:41:43.713Z,1000.59
2024-03-04T06:42:44.608Z,1000.61
2024-03-04T06:43:45.637Z,1000.62
2024-03-04T06:44:46.098Z,1000.65
2024-03-04T06:45:46.972Z,1000.67
2024-03-04T06:46:47.884Z,1000.68
2024-03-04T06:47:48.782Z,1000.69
2024-03-04T06:48:49.652Z,1000.68
2024-03-04T06:49:50.542Z,1000.68
2024-03-04T06:50:51.413Z,1000.68
2024-03-04T06:51:52.301Z,1000.69
2024-03-04T06:52:53.196Z,1000.70
2024-03-04T06:53:54.086Z,1000.72
2024-03-04T06:54:54.959Z,1000.73
2024-03-04T06:55:55.971Z,1000.75
2024-03-04T06:56:56.839Z,1000.78
2024-03-04T06:57:57.762Z,1000.80
2024-03-04T06:58:58.630Z,1000.81
2024-03-04T06:59:59.490Z,1000.83
2024-03-04T07:01:00.450Z,1000.86
2024-03-04T07:02:01.409Z,1000.85
2024-03-04T07:03:02.315Z,1000.88
2024-03-04T07:04:03.230Z,1000.87
2024-03-04T07:05:04.074Z,1000.88
2024-03-04T07:06:04.949Z,1000.88
2024-03-04T07:07:05.892Z,1000.91
2024-03-04T07:08:06.747Z,1000.92
2024-03-04T07:09:07.634Z,1000.95
2024-03-04T07:10:08.554Z,1000.98
2024-03-04T07:11:09.417Z,1000.99
2024-03-04T07:12:10.281Z,1001.01
2024-03-04T07:13:11.290Z,1001.02
2024-03-04T07:14:11.660Z,1001.01
2024-03-04T07:15:12.554Z,1001.03
2024-03-04T07:16:13.455Z,1001.03
2024-03-04T07:17:14.312Z,1001.04
2024-03-04T07:18:15.302Z,1001.05
2024-03-04T07:19:16.146Z,1001.07
2024-03-04T07:20:17.029Z,1001.07
2024-03-04T07:21:17.897Z,1001.08
2024-03-04T07:22:18.806Z,1001.09
2024-03-04T07:23:19.702Z,1001.09
2024-03-04T07:24:20.566Z,1001.11
2024-03-04T07:25:21.556Z,1001.12
2024-03-04T07:26:22.439Z,1001.14
2024-03-04T07:27:23.329Z,1001.18
2024-03-04T07:28:24.262Z,1001.19
2024-03-04T07:29:35.766Z,1001.20
2024-03-04T07:30:26.875Z,1001.23
2024-03-04T07:31:26.806Z,1001.23
2024-03-04T07:32:27.252Z,1001.24
2024-03-04T07:33:28.149Z,1001.24
2024-03-04T07:34:29.036Z,1001.24
2024-03-04T07:35:29.899Z,1001.23
2024-03-04T07:36:30.778Z,1001.21
2024-03-04T07:37:31.736Z,1001.21
2024-03-04T07:38:32.610Z,1001.21
2024-03-04T07:39:33.493Z,1001.20
2024-03-04T07:40:34.410Z,1001.20
2024-03-04T07:41:35.267Z,1001.20
2024-03-04T07:42:36.145Z,1001.18
2024-03-04T07:43:37.128Z,1001.20
2024-03-04T07:44:38.003Z,1001.19
2024-03-04T07:45:38.883Z,1001.20
2024-03-04T07:46:42.544Z,1001.23
2024-03-04T07:47:40.712Z,1001.24
2024-03-04T07:48:41.591Z,1001.25
2024-03-04T07:49:43.043Z,1001.26
2024-03-04T07:50:43.429Z,1001.28
2024-03-04T07:51:44.361Z,1001.28
2024-03-04T07:52:45.321Z,1001.28
2024-03-04T07:53:46.175Z,1001.28
2024-03-04T07:54:47.072Z,1001.29
2024-03-04T07:55:47.965Z,1001.29
2024-03-04T07:56:48.837Z,1001.30
2024-03-04T07:57:49.735Z,1001.30
2024-03-04T07:58:50.726Z,1001.32
2024-03-04T07:59:51.591Z,1001.34
2024-03-04T08:00:52.502Z,1001.36
2024-03-04T08:01:53.489Z,1001.37
2024-03-04T08:02:53.909Z,1001.40
2024-03-04T08:03:54.779Z,1001.43
2024-03-04T08:04:55.702Z,1001.45
2024-03-04T08:05:56.556Z,1001.47
2024-03-04T08:06:57.421Z,1001.49
2024-03-04T08:07:58.406Z,1001.51
2024-03-04T08:08:59.301Z,1001.50
2024-03-04T08:10:00.322Z,1001.51
2024-03-04T08:11:00.810Z,1001.50
2024-03-04T08:12:01.707Z,1001.51
2024-03-04T08:13:02.653Z,1001.50
2024-03-04T08:14:03.584Z,1001.52
2024-03-04T08:15:04.437Z,1001.55
2024-03-04T08:16:05.322Z,1001.56
2024-03-04T08:17:06.166Z,1001.59
2024-03-04T08:18:07.090Z,1001.62
2024-03-04T08:19:08.020Z,1001.64
2024-03-04T08:20:14.946Z,1001.67
2024-03-04T08:21:10.641Z,1001.67
2024-03-04T08:22:11.105Z,1001.68
2024-03-04T08:23:11.567Z,1001.69
2024-03-04T08:24:12.445Z,1001.67
2024-03-04T08:25:14.062Z,1001.65
2024-03-04T08:26:13.939Z,1001.67
2024-03-04T08:27:14.826Z,1001.66
2024-03-04T08:28:20.328Z,1001.66
2024-03-04T08:29:19.961Z,1001.67
2024-03-04T08:30:17.053Z,1001.68
2024-03-04T08:31:17.950Z,1001.71
2024-03-04T08:32:18.818Z,1001.73
2024-03-04T08:33:19.732Z,1001.73
2024-03-04T08:34:20.645Z,1001.74
2024-03-04T08:35:21.487Z,1001.74
2024-03-04T08:36:22.412Z,1001.75
2024-03-04T08:37:23.343Z,1001.75
2024-03-04T08:38:24.188Z,1001.77
2024-03-04T08:39:25.077Z,1001.79
2024-03-04T08:40:25.998Z,1001.82
2024-03-04T08:41:26.897Z,1001.84
2024-03-04T08:42:27.765Z,1001.84
2024-03-04T08:43:28.680Z,1001.85
2024-03-04T08:44:29.535Z,1001.86
2024-03-04T08:45:30.424Z,1001.88
2024-03-04T08:46:31.346Z,1001.91
2024-03-04T08:47:32.201Z,1001.92
2024-03-04T08:48:33.090Z,1001.92
2024-03-04T08:49:33.981Z,1001.93
2024-03-04T08:50:34.853Z,1001.95
2024-03-04T08:51:35.747Z,1001.95
2024-03-04T08:52:36.690Z,1001.97
2024-03-04T08:53:37.538Z,1001.98
2024-03-04T08:54:38.421Z,1001.99
2024-03-04T08:55:39.344Z,1002.00
2024-03-04T08:56:42.290Z,1002.00
2024-03-04T08:57:40.916Z,1002.01
2024-03-04T08:58:41.828Z,1001.99
2024-03-04T08:59:42.718Z,1002.00
2024-03-04T09:00:43.630Z,1001.99
2024-03-04T09:01:44.630Z,1001.97
2024-03-04T09:02:45.007Z,1001.98
2024-03-04T09:03:45.887Z,1001.98
2024-03-04T09:04:46.955Z,1001.98
2024-03-04T09:05:47.557Z,1001.98
2024-03-04T09:06:48.516Z,1001.98
2024-03-04T09:07:49.377Z,1002.01
2024-03-04T09:08:50.255Z,1002.01
2024-03-04T09:09:51.136Z,1002.02
2024-03-04T09:10:52.068Z,1002.01
2024-03-04T09:11:53.059Z,1002.03
2024-03-04T09:12:53.918Z,1002.01
2024-03-04T09:13:54.821Z,1002.03
2024-03-04T09:14:55.739Z,1002.02
2024-03-04T09:15:56.595Z,1002.02
2024-03-04T09:16:57.497Z,1002.03
2024-03-04T09:17:58.405Z,1002.03
2024-03-04T09:18:59.286Z,1002.03
2024-03-04T09:20:00.430Z,1002.02
2024-03-04T09:21:00.794Z,1002.02
2024-03-04T09:22:01.722Z,1002.02
2024-03-04T09:23:02.586Z,1002.02
2024-03-04T09:24:03.492Z,1002.01
2024-03-04T09:25:04.461Z,1001.99
2024-03-04T09:26:05.306Z,1002.00
2024-03-04T09:27:06.206Z,1001.98
2024-03-04T09:28:07.121Z,1001.99
2024-03-04T09:29:07.984Z,1001.98
2024-03-04T09:30:08.878Z,1001.98
2024-03-04T09:31:09.766Z,1001.98
2024-03-04T09:32:10.636Z,1001.98
2024-03-04T09:33:11.524Z,1001.96
2024-03-04T09:34:12.411Z,1001.94
2024-03-04T09:35:13.277Z,1001.95
2024-03-04T09:36:14.189Z,1001.96
2024-03-04T09:37:15.106Z,1001.97
2024-03-04T09:38:15.972Z,1001.97
2024-03-04T09:39:16.864Z,1001.99
2024-03-04T09:40:17.826Z,1001.99
2024-03-04T09:41:18.741Z,1001.99
2024-03-04T09:42:19.634Z,1002.01
2024-03-04T09:43:20.556Z,1002.00
2024-03-04T09:44:21.397Z,1002.00
2024-03-04T09:45:22.308Z,1001.98
2024-03-04T09:46:23.176Z,1001.99
2024-03-04T09:47:24.090Z,1002.00
2024-03-04T09:48:24.952Z,1002.01
2024-03-04T09:49:25.826Z,1002.00
2024-03-04T09:50:26.695Z,1002.03
2024-03-04T09:51:27.578Z,1002.06
2024-03-04T09:52:28.576Z,1002.06
2024-03-04T09:53:29.441Z,1002.07
2024-03-04T09:54:30.003Z,1002.08
2024-03-04T09:55:30.892Z,1002.08
2024-03-04T09:56:31.768Z,1002.07
2024-03-04T09:57:32.660Z,1002.09
2024-03-04T09:58:33.658Z,1002.10
2024-03-04T09:59:34.078Z,1002.11
2024-03-04T10:00:34.977Z,1002.12
2024-03-04T10:01:35.905Z,1002.13
2024-03-04T10:02:36.805Z,1002.14
2024-03-04T10:03:37.682Z,1002.15
2024-03-04T10:04:38.355Z,1002.15
2024-03-04T10:05:39.208Z,1002.17
2024-03-04T10:06:40.093Z,1002.18
2024-03-04T10:07:41.043Z,1002.21
2024-03-04T10:08:41.896Z,1002.22
2024-03-04T10:09:42.775Z,1002.21
2024-03-04T10:10:43.739Z,1002.20
2024-03-04T10:11:44.759Z,1002.18
2024-03-04T10:12:45.417Z,1002.18
2024-03-04T10:13:46.391Z,1002.17
2024-03-04T10:14:47.251Z,1002.18
2024-03-04T10:15:48.155Z,1002.18
2024-03-04T10:16:49.072Z,1002.21
2024-03-04T10:17:49.994Z,1002.20
2024-03-04T10:18:50.845Z,1002.22
2024-03-04T10:19:51.784Z,1002.20
2024-03-04T10:20:52.652Z,1002.20
2024-03-04T10:21:53.532Z,1002.19
2024-03-04T10:22:54.435Z,1002.19
2024-03-04T10:23:55.316Z,1002.19
2024-03-04T10:24:57.563Z,1002.21
2024-03-04T10:25:57.116Z,1002.23
2024-03-04T10:26:57.964Z,1002.23
2024-03-04T10:27:58.872Z,1002.24
2024-03-04T10:28:59.746Z,1002.24
2024-03-04T10:30:00.623Z,1002.25
2024-03-04T10:31:01.601Z,1002.24
2024-03-04T10:32:02.516Z,1002.24
2024-03-04T10:33:03.412Z,1002.24
2024-03-04T10:34:04.318Z,1002.24
2024-03-04T10:35:05.170Z,1002.24
2024-03-04T10:36:06.044Z,1002.24
2024-03-04T10:37:06.947Z,1002.24
2024-03-04T10:38:07.847Z,1002.24
2024-03-04T10:39:08.702Z,1002.24
2024-03-04T10:40:09.628Z,1002.24
2024-03-04T10:41:10.500Z,1002.23
2024-03-04T10:42:11.372Z,1002.23
2024-03-04T10:43:12.293Z,1002.23
2024-03-04T10:44:13.151Z,1002.22
2024-03-04T10:45:14.062Z,1002.21
2024-03-04T10:46:14.975Z,1002.22
2024-03-04T10:47:15.861Z,1002.22
2024-03-04T10:48:16.788Z,1002.23
2024-03-04T10:49:17.674Z,1002.24
2024-03-04T10:50:18.530Z,1002.25
2024-03-04T10:51:19.445Z,1002.24
2024-03-04T10:52:20.333Z,1002.24
2024-03-04T10:53:21.212Z,1002.25
2024-03-04T10:54:22.092Z,1002.25
2024-03-04T10:55:22.984Z,1002.25
2024-03-04T10:56:23.865Z,1002.27
2024-03-04T10:57:24.888Z,1002.24
2024-03-04T10:58:25.357Z,1002.23
2024-03-04T10:59:26.219Z,1002.23
2024-03-04T11:00:27.718Z,1002.23
2024-03-04T11:01:27.872Z,1002.21
2024-03-04T11:02:28.739Z,1002.21
2024-03-04T11:03:29.642Z,1002.20
2024-03-04T11:04:30.542Z,1002.18
2024-03-04T11:05:31.403Z,1002.19
2024-03-04T11:06:32.293Z,1002.20
2024-03-04T11:07:33.277Z,1002.21
2024-03-04T11:08:34.184Z,1002.22
2024-03-04T11:09:35.055Z,1002.24
2024-03-04T11:10:35.959Z,1002.26
2024-03-04T11:11:36.882Z,1002.25
2024-03-04T11:12:37.727Z,1002.25
2024-03-04T11:13:38.669Z,1002.24
2024-03-04T11:14:39.518Z,1002.25
2024-03-04T11:15:40.399Z,1002.26
2024-03-04T11:16:43.938Z,1002.25
2024-03-04T11:17:42.197Z,1002.26
2024-03-04T11:18:43.084Z,1002.26
2024-03-04T11:19:44.071Z,1002.27
2024-03-04T11:20:44.436Z,1002.29
2024-03-04T11:21:45.319Z,1002.30
2024-03-04T11:22:47.002Z,1002.32
2024-03-04T11:23:46.938Z,1002.33
2024-03-04T11:24:47.807Z,1002.35
2024-03-04T11:25:48.824Z,1002.35
2024-03-04T11:26:49.258Z,1002.38
2024-03-04T11:27:50.170Z,1002.41
2024-03-04T11:28:51.159Z,1002.44
2024-03-04T11:29:51.519Z,1002.45
2024-03-04T11:30:52.405Z,1002.52
2024-03-04T11:31:53.339Z,1002.50
2024-03-04T11:32:54.232Z,1002.50
2024-03-04T11:33:55.107Z,1002.52
2024-03-04T11:34:56.129Z,1002.53
2024-03-04T11:35:56.678Z,1002.54
2024-03-04T11:36:57.558Z,1002.55
2024-03-04T11:37:58.435Z,1002.55
2024-03-04T11:38:59.330Z,1002.54
2024-03-04T11:40:00.210Z,1002.53
2024-03-04T11:41:01.095Z,1002.52
2024-03-04T11:42:01.977Z,1002.53
2024-03-04T11:43:02.961Z,1002.51
2024-03-04T11:44:03.842Z,1002.52
2024-03-04T11:45:04.724Z,1002.53
2024-03-04T11:46:05.655Z,1002.53
2024-03-04T11:47:06.511Z,1002.55
2024-03-04T11:48:07.386Z,1002.55
2024-03-04T11:49:08.328Z,1002.56
2024-03-04T11:50:09.219Z,1002.58
2024-03-04T11:51:10.061Z,1002.58
2024-03-04T11:52:10.977Z,1002.61
2024-03-04T11:53:11.854Z,1002.61
2024-03-04T11:54:12.747Z,1002.63
2024-03-04T11:55:13.652Z,1002.65
2024-03-04T11:56:14.508Z,1002.60
2024-03-04T11:57:15.390Z,1002.61
2024-03-04T11:58:16.292Z,1002.60
2024-03-04T11:59:17.169Z,1002.60
2024-03-04T12:00:18.075Z,1002.61
2024-03-04T12:01:22.556Z,1002.62
2024-03-04T12:02:19.699Z,1002.64
2024-03-04T12:03:20.087Z,1002.64
2024-03-04T12:04:21.026Z,1002.66
2024-03-04T12:05:21.868Z,1002.67
2024-03-04T12:06:22.756Z,1002.68
2024-03-04T12:07:24.731Z,1002.68
2024-03-04T12:08:40.399Z,1002.70
2024-03-04T12:09:44.487Z,1002.70
2024-03-04T12:10:26.897Z,1002.71
2024-03-04T12:11:26.825Z,1002.73
2024-03-04T12:12:27.302Z,1002.73
2024-03-04T12:13:28.205Z,1002.73
2024-03-04T12:14:29.104Z,1002.73
2024-03-04T12:15:29.996Z,1002.75
2024-03-04T12:16:30.918Z,1002.75
2024-03-04T12:17:31.823Z,1002.77
2024-03-04T12:18:32.679Z,1002.76
2024-03-04T12:19:33.608Z,1002.77
2024-03-04T12:20:34.453Z,1002.77
2024-03-04T12:21:35.331Z,1002.78
2024-03-04T12:22:36.343Z,1002.77
2024-03-04T12:23:36.753Z,1002.78
2024-03-04T12:24:38.735Z,1002.78
2024-03-04T12:25:38.213Z,1002.78
2024-03-04T12:26:39.099Z,1002.76
2024-03-04T12:27:39.965Z,1002.78
2024-03-04T12:28:40.872Z,1002.78
2024-03-04T12:29:41.739Z,1002.78